createdAt,value
2022-11-24T00:01:29.863Z,4.60
2022-11-24T00:03:59.791Z,5.15
2022-11-24T00:06:27.951Z,4.35
2022-11-24T00:08:55.863Z,4.35
2022-11-24T00:11:28.646Z,4.45
2022-11-24T00:13:56.349Z,4.38
2022-11-24T00:16:25.099Z,3.78
2022-11-24T00:18:53.509Z,4.30
2022-11-24T00:21:21.650Z,4.70
2022-11-24T00:23:49.818Z,4.68
2022-11-24T00:26:24.606Z,4.82
2022-11-24T00:28:54.058Z,4.82
2022-11-24T00:31:22.846Z,4.63
2022-11-24T00:33:51.216Z,4.65
2022-11-24T00:36:19.667Z,4.60
2022-11-24T00:38:47.329Z,4.30
2022-11-24T00:41:15.597Z,4.18
2022-11-24T00:43:43.639Z,3.72
2022-11-24T00:46:11.323Z,4.50
2022-11-24T00:48:38.925Z,4.30
2022-11-24T00:51:07.759Z,5.38
2022-11-24T00:53:35.526Z,3.25
2022-11-24T00:56:06.164Z,5.63
2022-11-24T00:58:36.737Z,4.20
2022-11-24T01:03:37.784Z,3.90
2022-11-24T01:06:28.742Z,4.23
2022-11-24T01:08:57.402Z,4.00
2022-11-24T01:11:26.887Z,4.72
2022-11-24T01:13:55.946Z,4.40
2022-11-24T01:16:29.137Z,3.20
2022-11-24T01:18:57.348Z,3.72
2022-11-24T01:21:25.284Z,3.40
2022-11-24T01:23:53.170Z,4.72
2022-11-24T01:26:21.454Z,3.67
2022-11-24T01:28:53.081Z,4.07
2022-11-24T01:31:21.058Z,3.88
2022-11-24T01:33:48.641Z,4.00
2022-11-24T01:36:16.193Z,4.18
2022-11-24T01:38:44.177Z,3.38
2022-11-24T01:41:16.436Z,3.47
2022-11-24T01:43:44.717Z,3.97
2022-11-24T01:46:19.501Z,5.30
2022-11-24T01:48:53.778Z,3.42
2022-11-24T01:51:26.486Z,3.45
2022-11-24T01:53:57.895Z,4.55
2022-11-24T01:56:26.551Z,3.90
2022-11-24T01:58:56.457Z,3.42
2022-11-24T02:01:24.143Z,4.35
2022-11-24T02:03:52.431Z,3.85
2022-11-24T02:06:23.640Z,4.40
2022-11-24T02:08:54.547Z,3.70
2022-11-24T02:11:24.138Z,3.67
2022-11-24T02:13:54.036Z,4.70
2022-11-24T02:16:23.638Z,3.50
2022-11-24T02:18:51.276Z,4.70
2022-11-24T02:21:19.371Z,3.72
2022-11-24T02:24:07.460Z,4.53
2022-11-24T02:26:38.215Z,3.35
2022-11-24T02:29:06.306Z,3.45
2022-11-24T02:31:34.783Z,4.25
2022-11-24T02:34:03.643Z,4.28
2022-11-24T02:36:34.340Z,3.92
2022-11-24T02:39:02.811Z,3.65
2022-11-24T02:41:32.188Z,4.25
2022-11-24T02:44:00.991Z,4.40
2022-11-24T02:46:29.883Z,3.88
2022-11-24T02:48:57.425Z,3.42
2022-11-24T02:51:24.933Z,3.78
2022-11-24T02:53:53.257Z,4.53
2022-11-24T02:56:21.855Z,3.83
2022-11-24T02:58:49.419Z,3.92
2022-11-24T03:01:19.117Z,4.10
2022-11-24T03:03:47.440Z,3.95
2022-11-24T03:06:15.139Z,3.35
2022-11-24T03:08:43.067Z,3.67
2022-11-24T03:11:10.657Z,3.67
2022-11-24T03:13:38.277Z,4.85
2022-11-24T03:16:08.779Z,4.28
2022-11-24T03:21:04.440Z,3.53
2022-11-24T03:23:37.396Z,3.58
2022-11-24T03:26:11.269Z,5.03
2022-11-24T03:28:40.170Z,3.92
2022-11-24T03:31:08.223Z,3.03
2022-11-24T03:33:36.538Z,4.45
2022-11-24T03:36:06.323Z,4.07
2022-11-24T03:38:34.744Z,3.45
2022-11-24T03:41:03.351Z,4.22
2022-11-24T03:43:35.916Z,3.95
2022-11-24T03:46:06.854Z,3.67
2022-11-24T03:48:34.646Z,3.92
2022-11-24T03:51:03.681Z,4.30
2022-11-24T03:53:33.305Z,4.10
2022-11-24T03:56:03.185Z,3.67
2022-11-24T03:58:31.025Z,3.97
2022-11-24T04:01:02.881Z,3.17
2022-11-24T04:03:30.658Z,3.92
2022-11-24T04:05:58.614Z,3.85
2022-11-24T04:08:26.204Z,4.28
2022-11-24T04:10:56.218Z,3.35
2022-11-24T04:13:25.930Z,3.60
2022-11-24T04:15:53.664Z,4.27
2022-11-24T04:18:21.604Z,3.40
2022-11-24T04:20:51.069Z,4.55
2022-11-24T04:23:18.998Z,4.18
2022-11-24T04:25:47.973Z,4.25
2022-11-24T04:28:15.767Z,4.82
2022-11-24T04:30:45.135Z,4.80
2022-11-24T04:33:16.489Z,4.18
2022-11-24T04:35:47.380Z,3.85
2022-11-24T04:39:19.451Z,4.40
2022-11-24T04:41:04.132Z,4.63
2022-11-24T04:43:37.737Z,5.15
2022-11-24T04:46:11.305Z,5.10
2022-11-24T04:48:38.878Z,4.82
2022-11-24T04:51:07.282Z,4.97
2022-11-24T04:53:34.798Z,5.47
2022-11-24T04:56:08.931Z,4.72
2022-11-24T04:58:36.971Z,4.57
2022-11-24T05:01:08.798Z,4.85
2022-11-24T05:03:37.426Z,4.38
2022-11-24T05:06:05.111Z,4.55
2022-11-24T05:08:34.315Z,4.07
2022-11-24T05:11:06.139Z,3.35
2022-11-24T05:13:34.746Z,3.35
2022-11-24T05:16:06.433Z,4.13
2022-11-24T05:18:39.542Z,3.03
2022-11-24T05:21:07.097Z,2.95
2022-11-24T05:23:35.056Z,4.32
2022-11-24T05:26:03.582Z,2.92
2022-11-24T05:28:33.044Z,2.28
2022-11-24T05:31:02.368Z,2.88
2022-11-24T05:33:30.321Z,3.05
2022-11-24T05:36:02.275Z,2.05
2022-11-24T05:38:30.419Z,1.63
2022-11-24T05:41:05.277Z,1.95
2022-11-24T05:43:39.286Z,1.50
2022-11-24T05:46:07.122Z,1.98
2022-11-24T05:48:34.801Z,1.60
2022-11-24T05:51:09.012Z,1.70
2022-11-24T05:53:36.981Z,1.60
2022-11-24T05:56:04.820Z,1.65
2022-11-24T05:58:36.496Z,1.90
2022-11-24T06:01:06.665Z,2.50
2022-11-24T06:03:38.348Z,2.00
2022-11-24T06:06:06.526Z,1.35
2022-11-24T06:08:35.474Z,1.67
2022-11-24T06:11:20.174Z,1.73
2022-11-24T06:13:52.819Z,1.67
2022-11-24T06:16:21.586Z,1.75
2022-11-24T06:18:49.199Z,1.55
2022-11-24T06:21:17.683Z,1.90
2022-11-24T06:23:50.717Z,1.50
2022-11-24T06:26:21.985Z,1.52
2022-11-24T06:28:51.038Z,1.95
2022-11-24T06:31:20.886Z,1.95
2022-11-24T06:33:48.521Z,2.00
2022-11-24T06:36:19.691Z,1.92
2022-11-24T06:38:47.325Z,2.00
2022-11-24T06:41:17.030Z,2.50
2022-11-24T06:43:44.801Z,1.95
2022-11-24T06:46:12.858Z,2.85
2022-11-24T06:48:41.207Z,3.10
2022-11-24T06:51:10.303Z,2.40
2022-11-24T06:53:38.940Z,2.95
2022-11-24T06:56:13.788Z,3.33
2022-11-24T06:58:44.369Z,3.28
2022-11-24T07:01:16.599Z,3.50
2022-11-24T07:03:45.054Z,4.15
2022-11-24T07:06:12.868Z,4.55
2022-11-24T07:08:41.112Z,4.00
2022-11-24T07:11:10.119Z,4.00
2022-11-24T07:13:37.674Z,4.60
2022-11-24T07:16:16.712Z,4.10
2022-11-24T07:18:45.533Z,4.40
2022-11-24T07:21:13.488Z,6.10
2022-11-24T07:23:41.177Z,4.50
2022-11-24T07:26:11.559Z,3.92
2022-11-24T07:28:40.076Z,5.65
2022-11-24T07:31:12.709Z,4.10
2022-11-24T07:33:41.147Z,4.53
2022-11-24T07:36:09.819Z,4.28
2022-11-24T07:38:37.993Z,4.57
2022-11-24T07:41:06.668Z,4.63
2022-11-24T07:43:35.972Z,4.07
2022-11-24T07:46:05.245Z,4.63
2022-11-24T07:48:33.620Z,4.15
2022-11-24T07:51:02.659Z,4.95
2022-11-24T07:53:30.597Z,4.22
2022-11-24T07:56:08.670Z,3.85
2022-11-24T07:58:37.047Z,4.68
2022-11-24T08:01:11.760Z,3.90
2022-11-24T08:03:39.789Z,5.47
2022-11-24T08:06:24.145Z,4.30
2022-11-24T08:08:55.951Z,5.63
2022-11-24T08:11:24.300Z,4.45
2022-11-24T08:13:53.202Z,3.53
2022-11-24T08:16:28.693Z,3.90
2022-11-24T08:18:56.811Z,3.22
2022-11-24T08:21:26.234Z,3.80
2022-11-24T08:23:57.846Z,3.55
2022-11-24T08:26:25.711Z,3.83
2022-11-24T08:28:55.969Z,3.67
2022-11-24T08:31:23.711Z,2.88
2022-11-24T08:33:52.737Z,2.25
2022-11-24T08:36:21.063Z,2.97
2022-11-24T08:38:50.026Z,3.03
2022-11-24T08:41:17.985Z,2.60
2022-11-24T08:43:45.723Z,2.55
2022-11-24T08:46:17.370Z,2.38
2022-11-24T08:48:48.487Z,2.60
2022-11-24T08:51:17.709Z,3.03
2022-11-24T08:53:45.669Z,2.50
2022-11-24T08:56:15.501Z,2.97
2022-11-24T08:58:43.958Z,2.80
2022-11-24T09:01:16.202Z,2.22
2022-11-24T09:03:49.963Z,3.28
2022-11-24T09:06:19.620Z,3.05
2022-11-24T09:08:47.727Z,3.05
2022-11-24T09:11:17.392Z,3.22
2022-11-24T09:13:45.603Z,3.20
2022-11-24T09:16:23.996Z,2.25
2022-11-24T09:18:59.141Z,2.50
2022-11-24T09:21:26.627Z,2.90
2022-11-24T09:23:55.186Z,2.60
2022-11-24T09:26:27.879Z,2.42
2022-11-24T09:28:56.363Z,2.53
2022-11-24T09:31:25.494Z,3.22
2022-11-24T09:33:54.061Z,2.63
2022-11-24T09:36:21.862Z,3.45
2022-11-24T09:38:49.483Z,2.60
2022-11-24T09:41:34.255Z,2.40
2022-11-24T09:44:09.206Z,2.70
2022-11-24T09:46:53.363Z,4.10
2022-11-24T09:49:34.009Z,2.55
2022-11-24T09:52:04.485Z,2.00
2022-11-24T09:54:33.868Z,2.72
2022-11-24T09:57:04.568Z,2.10
2022-11-24T09:59:36.118Z,4.30
2022-11-24T10:02:04.421Z,2.78
2022-11-24T10:04:40.578Z,2.50
2022-11-24T10:07:23.667Z,2.70
2022-11-24T10:10:04.327Z,3.00
2022-11-24T10:15:24.734Z,2.47
2022-11-24T10:18:04.299Z,2.58
2022-11-24T10:20:32.432Z,2.75
2022-11-24T10:23:15.284Z,3.08
2022-11-24T10:26:04.224Z,2.65
2022-11-24T10:28:44.056Z,2.13
2022-11-24T10:31:20.094Z,3.58
2022-11-24T10:33:48.422Z,2.92
2022-11-24T10:36:20.522Z,2.50
2022-11-24T10:39:10.851Z,2.42
2022-11-24T10:41:44.693Z,3.22
2022-11-24T10:44:14.159Z,3.15
2022-11-24T10:46:42.535Z,2.85
2022-11-24T10:49:17.093Z,3.45
2022-11-24T10:51:45.051Z,3.15
2022-11-24T10:54:23.172Z,3.40
2022-11-24T10:56:52.168Z,2.60
2022-11-24T10:59:22.192Z,2.90
2022-11-24T11:01:50.316Z,3.50
2022-11-24T11:04:19.967Z,3.28
2022-11-24T11:07:23.800Z,3.10
2022-11-24T11:09:52.080Z,2.80
2022-11-24T11:12:42.653Z,3.83
2022-11-24T11:15:25.047Z,3.65
2022-11-24T11:17:55.232Z,3.38
2022-11-24T11:20:25.618Z,3.58
2022-11-24T11:22:53.242Z,3.40
2022-11-24T11:25:23.936Z,3.63
2022-11-24T11:28:16.534Z,3.85
2022-11-24T11:34:29.841Z,3.60
2022-11-24T11:37:17.086Z,3.28
2022-11-24T11:39:49.336Z,3.13
2022-11-24T11:45:25.042Z,3.35
2022-11-24T11:47:55.942Z,2.83
2022-11-24T11:50:31.530Z,3.25
2022-11-24T11:53:30.718Z,3.00
2022-11-24T11:56:05.555Z,3.17
2022-11-24T11:58:33.598Z,3.75
2022-11-24T12:01:06.987Z,3.65
2022-11-24T12:03:46.696Z,4.10
2022-11-24T12:06:33.732Z,4.65
2022-11-24T12:09:22.194Z,2.88
2022-11-24T12:12:06.862Z,3.63
2022-11-24T12:14:41.152Z,3.58
2022-11-24T12:17:15.290Z,3.13
2022-11-24T12:19:48.973Z,4.20
2022-11-24T12:22:25.858Z,3.83
2022-11-24T12:25:05.285Z,3.40
2022-11-24T12:27:44.428Z,3.78
2022-11-24T12:30:16.868Z,3.60
2022-11-24T12:33:04.467Z,3.38
2022-11-24T12:35:45.861Z,3.63
2022-11-24T12:38:33.166Z,3.38
2022-11-24T12:41:39.635Z,2.97
2022-11-24T12:43:53.968Z,3.00
2022-11-24T12:46:40.557Z,2.75
2022-11-24T12:49:27.397Z,3.17
2022-11-24T12:52:15.225Z,4.80
2022-11-24T12:54:42.800Z,3.58
2022-11-24T12:57:15.023Z,3.20
2022-11-24T12:59:48.454Z,2.88
2022-11-24T13:02:39.609Z,3.55
2022-11-24T13:05:07.436Z,3.20
2022-11-24T13:07:35.605Z,3.17
2022-11-24T13:13:27.161Z,2.90
2022-11-24T13:19:15.200Z,3.45
2022-11-24T13:21:45.643Z,3.13
2022-11-24T13:24:20.059Z,2.90
2022-11-24T13:26:49.264Z,2.95
2022-11-24T13:29:29.007Z,3.25
2022-11-24T13:31:57.921Z,3.43
2022-11-24T13:34:40.880Z,3.55
2022-11-24T13:37:31.244Z,3.30
2022-11-24T13:40:13.498Z,3.55
2022-11-24T13:43:03.204Z,3.28
2022-11-24T13:45:51.269Z,3.20
2022-11-24T13:48:22.581Z,4.15
2022-11-24T13:50:58.644Z,3.30
2022-11-24T13:53:29.378Z,2.83
2022-11-24T13:56:03.752Z,4.93
2022-11-24T13:58:37.827Z,3.40
2022-11-24T14:01:20.440Z,2.83
2022-11-24T14:04:29.910Z,3.33
2022-11-24T14:06:56.564Z,3.25
2022-11-24T14:09:26.392Z,3.58
2022-11-24T14:12:03.802Z,2.95
2022-11-24T14:14:32.223Z,2.80
2022-11-24T14:17:17.365Z,3.33
2022-11-24T14:19:46.193Z,3.20
2022-11-24T14:22:52.189Z,3.03
2022-11-24T14:25:23.143Z,3.42
2022-11-24T14:27:51.032Z,2.88
2022-11-24T14:30:32.726Z,3.40
2022-11-24T14:33:03.467Z,2.50
2022-11-24T14:35:33.653Z,3.38
2022-11-24T14:38:06.375Z,3.17
2022-11-24T14:40:39.895Z,2.83
2022-11-24T14:43:16.350Z,2.45
2022-11-24T14:46:00.722Z,3.33
2022-11-24T14:48:29.860Z,3.60
2022-11-24T14:51:08.286Z,3.25
2022-11-24T14:53:36.259Z,2.67
2022-11-24T14:56:22.739Z,3.38
2022-11-24T14:58:59.033Z,2.58
2022-11-24T15:01:30.499Z,3.20
2022-11-24T15:07:39.202Z,2.97
2022-11-24T15:10:08.217Z,3.80
2022-11-24T15:12:35.668Z,3.35
2022-11-24T15:15:17.100Z,2.65
2022-11-24T15:18:04.388Z,3.47
2022-11-24T15:20:38.076Z,3.38
2022-11-24T15:23:42.693Z,3.05
2022-11-24T15:26:13.517Z,4.22
2022-11-24T15:28:41.962Z,3.40
2022-11-24T15:31:11.699Z,2.60
2022-11-24T15:33:40.772Z,3.00
2022-11-24T15:36:14.193Z,2.38
2022-11-24T15:38:42.707Z,2.78
2022-11-24T15:41:22.217Z,3.08
2022-11-24T15:43:49.914Z,3.58
2022-11-24T15:46:17.653Z,3.72
2022-11-24T15:48:45.442Z,2.83
2022-11-24T15:51:15.529Z,3.75
2022-11-24T15:53:47.401Z,3.22
2022-11-24T15:56:24.804Z,3.42
2022-11-24T15:58:53.211Z,3.53
2022-11-24T16:01:21.772Z,3.10
2022-11-24T16:03:49.802Z,3.65
2022-11-24T16:06:24.966Z,3.20
2022-11-24T16:08:53.584Z,2.72
2022-11-24T16:11:21.518Z,2.92
2022-11-24T16:13:52.833Z,2.85
2022-11-24T16:16:22.145Z,3.65
2022-11-24T16:18:50.050Z,3.25
2022-11-24T16:21:17.554Z,3.78
2022-11-24T16:23:46.191Z,3.15
2022-11-24T16:26:13.674Z,5.05
2022-11-24T16:28:42.187Z,3.35
2022-11-24T16:31:10.085Z,4.03
2022-11-24T16:33:40.990Z,4.45
2022-11-24T16:36:09.418Z,4.60
2022-11-24T16:38:37.307Z,3.25
2022-11-24T16:41:05.044Z,3.17
2022-11-24T16:43:36.998Z,3.85
2022-11-24T16:50:13.228Z,3.45
2022-11-24T16:52:43.612Z,3.65
2022-11-24T16:55:13.838Z,3.05
2022-11-24T16:57:41.916Z,4.00
2022-11-24T17:00:20.742Z,3.30
2022-11-24T17:02:49.649Z,4.05
2022-11-24T17:05:17.211Z,3.83
2022-11-24T17:07:48.152Z,4.25
2022-11-24T17:10:20.436Z,3.70
2022-11-24T17:12:48.053Z,3.97
2022-11-24T17:15:32.539Z,3.40
2022-11-24T17:20:53.104Z,3.97
2022-11-24T17:23:21.546Z,3.92
2022-11-24T17:25:49.106Z,3.40
2022-11-24T17:28:18.066Z,4.70
2022-11-24T17:30:46.274Z,3.95
2022-11-24T17:33:13.753Z,4.40
2022-11-24T17:35:41.503Z,3.90
2022-11-24T17:38:09.294Z,4.05
2022-11-24T17:40:37.370Z,4.50
2022-11-24T17:43:05.868Z,3.47
2022-11-24T17:45:34.507Z,5.15
2022-11-24T17:48:02.972Z,4.03
2022-11-24T17:50:45.760Z,3.67
2022-11-24T17:53:46.708Z,4.22
2022-11-24T17:56:15.711Z,4.15
2022-11-24T17:58:43.747Z,3.90
2022-11-24T18:01:12.512Z,4.40
2022-11-24T18:03:41.512Z,4.05
2022-11-24T18:06:11.204Z,4.30
2022-11-24T18:08:56.420Z,4.27
2022-11-24T18:11:30.485Z,3.35
2022-11-24T18:14:03.563Z,3.65
2022-11-24T18:16:35.637Z,3.92
2022-11-24T18:19:09.052Z,3.63
2022-11-24T18:21:38.292Z,3.83
2022-11-24T18:24:06.137Z,4.25
2022-11-24T18:26:34.868Z,3.75
2022-11-24T18:29:03.563Z,4.15
2022-11-24T18:31:34.479Z,4.22
2022-11-24T18:34:05.466Z,3.88
2022-11-24T18:36:34.651Z,3.72
2022-11-24T18:39:07.037Z,4.40
2022-11-24T18:41:35.821Z,3.97
2022-11-24T18:44:08.778Z,3.65
2022-11-24T18:46:37.031Z,3.53
2022-11-24T18:49:04.869Z,3.75
2022-11-24T18:51:33.954Z,4.53
2022-11-24T18:54:03.414Z,4.05
2022-11-24T18:56:33.798Z,3.55
2022-11-24T18:59:04.918Z,4.10
2022-11-24T19:01:33.424Z,4.13
2022-11-24T19:04:03.457Z,3.60
2022-11-24T19:06:35.961Z,3.53
2022-11-24T19:09:07.536Z,3.20
2022-11-24T19:11:36.563Z,3.30
2022-11-24T19:14:05.811Z,4.22
2022-11-24T19:16:35.230Z,4.45
2022-11-24T19:19:03.710Z,3.30
2022-11-24T19:21:33.300Z,3.35
2022-11-24T19:24:05.886Z,3.70
2022-11-24T19:26:35.986Z,4.07
2022-11-24T19:29:05.219Z,3.15
2022-11-24T19:31:34.893Z,3.28
2022-11-24T19:34:08.251Z,2.97
2022-11-24T19:36:41.912Z,3.97
2022-11-24T19:39:14.295Z,3.55
2022-11-24T19:41:42.513Z,3.72
2022-11-24T19:44:12.635Z,3.33
2022-11-24T19:46:41.006Z,4.30
2022-11-24T19:49:09.053Z,4.45
2022-11-24T19:51:38.755Z,3.65
2022-11-24T19:54:08.547Z,4.18
2022-11-24T19:56:37.289Z,3.60
2022-11-24T19:59:05.831Z,4.55
2022-11-24T20:01:37.545Z,3.53
2022-11-24T20:04:07.916Z,3.42
2022-11-24T20:06:40.396Z,4.22
2022-11-24T20:09:10.017Z,3.40
2022-11-24T20:11:38.858Z,4.40
2022-11-24T20:14:07.575Z,3.50
2022-11-24T20:16:36.140Z,3.80
2022-11-24T20:19:06.433Z,3.75
2022-11-24T20:21:35.630Z,3.97
2022-11-24T20:24:08.216Z,3.70
2022-11-24T20:26:40.789Z,4.00
2022-11-24T20:29:12.613Z,4.90
2022-11-24T20:31:41.956Z,3.97
2022-11-24T20:34:10.539Z,3.50
2022-11-24T20:36:40.012Z,3.92
2022-11-24T20:39:09.681Z,3.55
2022-11-24T20:41:40.217Z,3.78
2022-11-24T20:44:12.357Z,2.65
2022-11-24T20:46:40.759Z,3.38
2022-11-24T20:49:09.122Z,3.30
2022-11-24T20:51:44.268Z,3.33
2022-11-24T20:54:13.378Z,3.83
2022-11-24T20:56:43.732Z,3.25
2022-11-24T20:59:14.162Z,3.63
2022-11-24T21:01:43.650Z,3.60
2022-11-24T21:04:15.967Z,4.13
2022-11-24T21:06:43.754Z,3.45
2022-11-24T21:09:14.476Z,3.53
2022-11-24T21:11:43.276Z,3.67
2022-11-24T21:14:11.670Z,3.83
2022-11-24T21:16:40.884Z,3.33
2022-11-24T21:19:11.813Z,4.20
2022-11-24T21:21:40.329Z,4.25
2022-11-24T21:24:11.536Z,3.83
2022-11-24T21:26:39.843Z,3.70
2022-11-24T21:29:09.029Z,3.50
2022-11-24T21:31:37.376Z,3.80
2022-11-24T21:34:05.390Z,3.40
2022-11-24T21:36:35.137Z,4.82
2022-11-24T21:39:04.122Z,3.78
2022-11-24T21:41:34.377Z,3.35
2022-11-24T21:44:02.533Z,3.78
2022-11-24T21:46:42.171Z,5.05
2022-11-24T21:49:14.505Z,4.47
2022-11-24T21:51:42.196Z,3.60
2022-11-24T21:54:10.043Z,3.42
2022-11-24T21:56:39.110Z,2.78
2022-11-24T21:59:06.656Z,3.08
2022-11-24T22:01:34.642Z,3.50
2022-11-24T22:04:03.800Z,4.30
2022-11-24T22:06:33.331Z,3.80
2022-11-24T22:09:02.393Z,4.03
2022-11-24T22:11:29.985Z,4.57
2022-11-24T22:13:57.637Z,3.53
2022-11-24T22:16:26.557Z,4.03
2022-11-24T22:18:54.203Z,4.65
2022-11-24T22:21:33.744Z,3.88
2022-11-24T22:24:02.162Z,4.13
2022-11-24T22:26:30.618Z,3.72
2022-11-24T22:28:58.674Z,4.13
2022-11-24T22:31:27.891Z,4.25
2022-11-24T22:33:56.087Z,4.18
2022-11-24T22:36:24.512Z,3.70
2022-11-24T22:38:56.326Z,4.45
2022-11-24T22:41:24.201Z,3.47
2022-11-24T22:43:52.058Z,3.60
2022-11-24T22:46:24.540Z,3.75
2022-11-24T22:48:55.523Z,3.95
2022-11-24T22:51:26.508Z,3.85
2022-11-24T22:54:03.882Z,3.80
2022-11-24T22:56:35.625Z,5.18
2022-11-24T22:59:05.096Z,4.38
2022-11-24T23:01:36.165Z,4.03
2022-11-24T23:04:05.628Z,4.22
2022-11-24T23:06:35.384Z,3.80
2022-11-24T23:09:04.767Z,3.60
2022-11-24T23:11:38.436Z,3.70
2022-11-24T23:14:08.034Z,4.38
2022-11-24T23:16:35.667Z,3.28
2022-11-24T23:19:03.975Z,3.60
2022-11-24T23:21:36.429Z,3.30
2022-11-24T23:24:05.411Z,3.67
2022-11-24T23:26:34.631Z,3.50
2022-11-24T23:29:02.394Z,4.88
2022-11-24T23:31:30.287Z,3.90
2022-11-24T23:33:59.015Z,3.42
2022-11-24T23:36:26.737Z,3.47
2022-11-24T23:38:54.823Z,4.03
2022-11-24T23:41:23.992Z,4.20
2022-11-24T23:43:52.582Z,3.22
2022-11-24T23:46:21.755Z,4.35
2022-11-24T23:48:50.107Z,3.95
2022-11-24T23:51:19.029Z,5.03
2022-11-24T23:53:47.514Z,4.50
2022-11-24T23:56:21.731Z,3.55
2022-11-24T23:58:49.811Z,4.18
